Time;durP1;ratioP1;P1;durP2;ratioP2;P2;SDS_P1;SDS_P2;PMS_P1;PMS_P2;Temp;Humidity;BMP_temperature;BMP_pressure;BME280_temperature;BME280_humidity;BME280_pressure;Samples;Min_cycle;Max_cycle;Signal;HPM_P1;HPM_P2
2022/03/30 00:01:40;;;;;;;68.50;36.10;;;;;;;4.35;73.94;97734.48;108031;1277;23399;-71
2022/03/30 00:04:08;;;;;;;64.50;33.50;;;;;;;4.30;73.80;97732.88;108017;1278;22574;-72
2022/03/30 00:06:35;;;;;;;70.10;35.70;;;;;;;4.29;73.51;97731.56;108023;1277;22581;-73
2022/03/30 00:09:02;;;;;;;59.80;34.30;;;;;;;4.28;74.12;97731.10;108068;1277;22690;-74
2022/03/30 00:11:29;;;;;;;67.80;35.30;;;;;;;4.24;74.45;97728.34;108053;1277;24938;-77
2022/03/30 00:13:56;;;;;;;72.70;34.90;;;;;;;4.22;74.49;97729.70;108031;1277;22541;-75
2022/03/30 00:16:24;;;;;;;66.00;34.90;;;;;;;4.16;74.12;97728.95;108021;1278;22553;-75
2022/03/30 00:18:51;;;;;;;63.70;34.20;;;;;;;4.09;73.99;97730.69;107997;1278;23241;-71
2022/03/30 00:21:19;;;;;;;69.00;36.90;;;;;;;4.03;74.17;97726.71;108029;1278;22709;-72
2022/03/30 00:23:46;;;;;;;66.50;34.80;;;;;;;3.98;73.93;97726.13;108027;1278;22557;-76
2022/03/30 00:26:13;;;;;;;72.50;36.30;;;;;;;3.98;73.99;97721.14;108026;1278;22551;-72
2022/03/30 00:28:40;;;;;;;73.40;37.90;;;;;;;3.98;74.26;97718.90;107989;1277;22549;-75
2022/03/30 00:31:07;;;;;;;75.30;37.70;;;;;;;3.98;74.97;97717.00;107983;1277;22572;-79
2022/03/30 00:33:34;;;;;;;70.30;37.70;;;;;;;3.96;75.08;97714.00;108003;1277;22549;-75
2022/03/30 00:36:01;;;;;;;68.20;36.60;;;;;;;3.93;74.96;97715.22;108054;1277;22562;-75
2022/03/30 00:38:28;;;;;;;72.30;34.80;;;;;;;3.92;74.91;97713.88;108131;1277;22648;-72
2022/03/30 00:40:56;;;;;;;60.80;31.80;;;;;;;3.92;74.98;97712.48;108067;1277;22544;-72
2022/03/30 00:43:23;;;;;;;55.70;31.20;;;;;;;3.97;74.50;97711.03;108033;1277;22564;-73
2022/03/30 00:45:50;;;;;;;55.50;29.90;;;;;;;3.99;74.85;97712.14;108005;1277;22712;-73
2022/03/30 00:48:17;;;;;;;52.40;30.90;;;;;;;3.99;75.48;97707.30;108083;1277;22681;-78
2022/03/30 00:50:44;;;;;;;55.00;30.50;;;;;;;3.97;75.37;97704.48;108049;1278;22547;-75
2022/03/30 00:53:11;;;;;;;74.90;39.10;;;;;;;3.95;75.45;97702.33;108098;1277;23280;-71
2022/03/30 00:55:38;;;;;;;67.80;39.80;;;;;;;3.94;75.10;97698.76;108013;1277;22725;-75
2022/03/30 00:58:06;;;;;;;77.60;43.00;;;;;;;3.92;75.18;97699.58;108023;1277;26770;-74
2022/03/30 01:00:33;;;;;;;77.50;41.50;;;;;;;3.91;74.92;97697.06;108039;1277;22695;-72
2022/03/30 01:03:00;;;;;;;70.90;39.80;;;;;;;3.93;74.76;97699.85;108072;1277;24272;-74
2022/03/30 01:05:27;;;;;;;62.50;36.30;;;;;;;3.92;75.31;97696.14;108001;1277;26749;-78
2022/03/30 01:07:58;;;;;;;70.40;39.90;;;;;;;3.88;75.38;97696.70;108012;1277;22578;-78
2022/03/30 01:10:25;;;;;;;70.60;38.80;;;;;;;3.82;75.67;97694.44;107993;1277;22542;-72
2022/03/30 01:12:54;;;;;;;71.60;37.30;;;;;;;3.77;75.39;97693.27;108005;1277;22570;-75
2022/03/30 01:15:22;;;;;;;63.40;34.80;;;;;;;3.74;74.97;97691.09;108006;1277;22558;-78
2022/03/30 01:17:50;;;;;;;60.50;33.40;;;;;;;3.68;74.76;97691.88;108152;1277;22561;-75
2022/03/30 01:20:21;;;;;;;66.80;34.10;;;;;;;3.67;74.88;97686.09;108269;1277;22553;-81
2022/03/30 01:22:50;;;;;;;63.80;35.20;;;;;;;3.64;75.12;97688.48;108254;1277;22721;-71
2022/03/30 01:25:18;;;;;;;76.90;38.90;;;;;;;3.60;75.54;97686.80;108293;1277;22540;-71
2022/03/30 01:27:45;;;;;;;83.20;40.80;;;;;;;3.54;75.35;97682.48;108264;1277;22547;-74
2022/03/30 01:33:04;;;;;;;84.20;40.20;;;;;;;3.41;75.09;97679.04;108274;1277;22538;-77
2022/03/30 01:35:31;;;;;;;81.10;40.40;;;;;;;3.36;74.95;97677.88;108265;1277;22547;-79
2022/03/30 01:37:59;;;;;;;85.80;40.70;;;;;;;3.37;74.77;97672.86;108320;1277;25250;-70
2022/03/30 01:40:27;;;;;;;79.80;39.20;;;;;;;3.37;75.02;97669.08;108237;1277;22697;-77
2022/03/30 01:42:54;;;;;;;82.70;41.00;;;;;;;3.36;75.73;97665.65;108272;1277;22592;-73
2022/03/30 01:45:21;;;;;;;87.70;43.40;;;;;;;3.34;75.78;97659.58;108268;1277;22556;-77
2022/03/30 01:47:54;;;;;;;91.50;44.60;;;;;;;3.31;75.72;97662.15;108281;1277;22701;-72
2022/03/30 01:50:22;;;;;;;89.60;45.70;;;;;;;3.29;75.70;97660.22;108288;1277;22553;-75
2022/03/30 01:52:50;;;;;;;90.90;44.10;;;;;;;3.25;75.35;97656.08;108265;1278;22763;-76
2022/03/30 01:55:18;;;;;;;92.80;44.50;;;;;;;3.23;75.04;97651.37;108241;1278;22560;-73
2022/03/30 01:57:46;;;;;;;89.80;45.00;;;;;;;3.27;74.87;97646.38;107781;1277;653133;-75
2022/03/30 02:00:15;;;;;;;79.50;41.20;;;;;;;3.28;75.33;97646.15;108261;1277;22710;-75
2022/03/30 02:02:42;;;;;;;81.10;41.40;;;;;;;3.28;75.92;97644.08;108331;1278;22567;-71
2022/03/30 02:05:10;;;;;;;81.20;41.40;;;;;;;3.25;76.02;97643.88;108276;1279;22544;-78
2022/03/30 02:07:39;;;;;;;81.90;40.80;;;;;;;3.21;76.07;97640.79;108286;1278;22539;-77
2022/03/30 02:10:08;;;;;;;77.70;42.50;;;;;;;3.18;75.71;97640.95;108244;1278;22556;-77
2022/03/30 02:12:36;;;;;;;73.70;40.30;;;;;;;3.15;75.51;97636.98;108303;1278;22535;-73
2022/03/30 02:15:04;;;;;;;85.50;40.40;;;;;;;3.12;75.23;97635.98;108299;1278;22574;-72
2022/03/30 02:17:33;;;;;;;88.30;43.60;;;;;;;3.12;75.23;97630.77;108258;1278;22633;-71
2022/03/30 02:20:00;;;;;;;91.00;47.50;;;;;;;3.11;75.53;97630.85;108302;1278;22577;-81
2022/03/30 02:22:27;;;;;;;88.30;47.50;;;;;;;3.08;75.96;97630.98;108275;1278;22733;-78
2022/03/30 02:24:54;;;;;;;91.10;49.80;;;;;;;3.03;75.97;97624.20;108276;1278;22762;-73
2022/03/30 02:27:23;;;;;;;96.30;50.10;;;;;;;2.98;75.86;97625.45;108281;1278;24323;-72
2022/03/30 02:29:54;;;;;;;89.70;46.10;;;;;;;2.93;75.55;97628.81;108269;1278;22639;-73
2022/03/30 02:32:22;;;;;;;99.40;49.30;;;;;;;2.85;75.40;97627.67;108271;1278;22629;-70
2022/03/30 02:34:50;;;;;;;100.00;49.60;;;;;;;2.79;75.16;97625.91;108290;1277;22627;-71
2022/03/30 02:37:18;;;;;;;95.80;48.60;;;;;;;2.78;75.12;97622.55;108285;1278;22636;-70
2022/03/30 02:39:46;;;;;;;86.90;45.40;;;;;;;2.76;75.39;97623.52;108275;1278;22562;-77
2022/03/30 02:42:13;;;;;;;84.70;44.30;;;;;;;2.74;75.64;97621.89;108274;1278;22536;-82
2022/03/30 02:44:41;;;;;;;88.80;45.90;;;;;;;2.69;76.01;97624.73;108279;1278;22704;-71
2022/03/30 02:47:08;;;;;;;89.50;47.40;;;;;;;2.64;75.89;97622.04;108284;1277;22538;-71
2022/03/30 02:49:36;;;;;;;88.70;45.60;;;;;;;2.58;75.88;97619.91;108317;1278;22525;-73
2022/03/30 02:52:04;;;;;;;87.40;47.20;;;;;;;2.54;75.56;97619.22;108284;1279;22559;-71
2022/03/30 02:54:31;;;;;;;90.30;44.90;;;;;;;2.51;75.40;97618.88;108278;1277;22717;-70
2022/03/30 02:56:59;;;;;;;76.00;41.50;;;;;;;2.50;75.41;97621.14;108282;1278;22685;-73
2022/03/30 02:59:26;;;;;;;80.10;41.90;;;;;;;2.49;75.44;97621.89;108331;1278;22626;-77
2022/03/30 03:01:54;;;;;;;79.10;40.00;;;;;;;2.47;75.94;97620.61;108304;1277;22555;-77
2022/03/30 03:04:22;;;;;;;79.20;39.30;;;;;;;2.44;76.19;97622.31;108283;1278;22819;-74
2022/03/30 03:06:50;;;;;;;68.30;37.00;;;;;;;2.41;76.03;97625.38;108287;1278;22535;-72
2022/03/30 03:09:17;;;;;;;69.70;37.10;;;;;;;2.40;76.00;97624.61;108259;1277;22618;-75
2022/03/30 03:11:44;;;;;;;77.30;37.00;;;;;;;2.37;75.97;97622.67;108257;1277;22556;-72
2022/03/30 03:14:11;;;;;;;77.50;37.10;;;;;;;2.36;75.65;97619.96;108020;1279;22650;-70
2022/03/30 03:16:38;;;;;;;82.70;39.00;;;;;;;2.37;75.72;97618.02;108005;1278;22638;-73
2022/03/30 03:19:05;;;;;;;72.70;40.00;;;;;;;2.38;76.24;97614.03;108018;1279;22636;-72
2022/03/30 03:21:32;;;;;;;68.20;35.70;;;;;;;2.39;76.55;97610.89;108060;1278;22544;-70
2022/03/30 03:23:59;;;;;;;70.00;37.00;;;;;;;2.38;76.73;97610.77;108095;1277;24313;-71
2022/03/30 03:26:26;;;;;;;75.20;38.20;;;;;;;2.37;76.63;97611.33;108091;1278;22626;-71
2022/03/30 03:28:54;;;;;;;81.10;41.20;;;;;;;2.35;76.47;97614.67;108062;1278;25523;-71
2022/03/30 03:31:21;;;;;;;81.30;37.60;;;;;;;2.33;76.51;97614.75;108041;1279;22554;-78
2022/03/30 03:33:48;;;;;;;74.30;35.80;;;;;;;2.35;76.31;97615.87;108018;1279;22544;-73
2022/03/30 03:36:15;;;;;;;68.00;35.70;;;;;;;2.34;76.56;97613.34;108044;1278;22629;-74
2022/03/30 03:38:42;;;;;;;75.90;37.40;;;;;;;2.31;76.74;97612.66;108039;1278;22556;-74
2022/03/30 03:41:09;;;;;;;75.30;37.70;;;;;;;2.26;76.85;97611.16;108017;1278;22767;-71
2022/03/30 03:43:37;;;;;;;73.40;38.70;;;;;;;2.22;76.67;97613.77;108052;1278;22611;-78
2022/03/30 03:46:04;;;;;;;73.70;37.30;;;;;;;2.19;76.40;97613.92;108014;1279;22525;-76
2022/03/30 03:48:31;;;;;;;71.80;36.20;;;;;;;2.16;76.26;97617.48;108008;1279;22674;-73
2022/03/30 03:50:59;;;;;;;73.60;35.70;;;;;;;2.16;76.17;97621.77;108025;1278;22538;-70
2022/03/30 03:53:26;;;;;;;72.10;37.60;;;;;;;2.16;76.49;97619.88;108043;1278;24294;-77
2022/03/30 03:55:53;;;;;;;68.80;37.40;;;;;;;2.14;76.74;97618.64;108039;1277;22573;-72
2022/03/30 03:58:20;;;;;;;77.60;38.80;;;;;;;2.11;76.91;97618.77;108021;1277;22683;-71
2022/03/30 04:00:48;;;;;;;83.20;41.10;;;;;;;2.09;76.78;97616.64;107979;1278;22537;-71
2022/03/30 04:03:15;;;;;;;90.80;43.30;;;;;;;2.06;76.60;97619.86;108014;1279;22631;-72
2022/03/30 04:05:42;;;;;;;97.40;46.50;;;;;;;2.04;76.36;97620.67;108061;1278;22546;-76
2022/03/30 04:08:10;;;;;;;97.60;47.70;;;;;;;2.07;76.31;97619.44;108053;1278;24763;-72
2022/03/30 04:10:38;;;;;;;95.80;44.90;;;;;;;2.11;76.74;97617.91;108003;1278;22653;-73
2022/03/30 04:13:06;;;;;;;85.40;43.00;;;;;;;2.14;77.10;97615.03;108005;1278;22613;-70
2022/03/30 04:15:34;;;;;;;85.20;42.20;;;;;;;2.15;77.47;97615.32;108014;1277;23174;-73
2022/03/30 04:18:03;;;;;;;90.00;42.80;;;;;;;2.16;77.25;97616.46;108060;1278;25112;-74
2022/03/30 04:20:31;;;;;;;83.50;43.90;;;;;;;2.17;77.07;97613.14;108076;1278;22630;-71
2022/03/30 04:22:58;;;;;;;88.50;43.50;;;;;;;2.20;76.88;97615.91;108024;1278;22713;-70
2022/03/30 04:25:26;;;;;;;84.50;41.60;;;;;;;2.27;76.78;97610.08;108022;1277;22629;-74
2022/03/30 04:27:54;;;;;;;84.30;41.40;;;;;;;2.33;77.17;97612.70;108023;1277;22591;-70
2022/03/30 04:30:23;;;;;;;79.80;39.00;;;;;;;2.38;77.64;97612.48;108079;1279;22609;-76
2022/03/30 04:32:50;;;;;;;90.90;42.10;;;;;;;2.39;77.80;97612.59;108071;1277;22627;-71
2022/03/30 04:35:22;;;;;;;88.80;43.90;;;;;;;2.41;77.69;97607.70;108016;1279;22571;-71
2022/03/30 04:37:49;;;;;;;78.00;41.60;;;;;;;2.44;77.43;97608.05;108162;1277;22622;-70
2022/03/30 04:40:16;;;;;;;86.60;43.80;;;;;;;2.46;77.21;97606.41;108033;1277;23002;-79
2022/03/30 04:42:43;;;;;;;94.90;45.60;;;;;;;2.48;77.01;97605.79;108040;1278;27751;-74
2022/03/30 04:45:10;;;;;;;94.30;46.30;;;;;;;2.53;76.96;97606.90;108025;1279;22540;-79
2022/03/30 04:47:37;;;;;;;104.00;48.50;;;;;;;2.56;77.24;97608.65;108028;1278;22553;-75
2022/03/30 04:50:05;;;;;;;93.20;46.90;;;;;;;2.58;77.72;97609.61;107996;1277;22619;-71
2022/03/30 04:52:32;;;;;;;100.80;47.40;;;;;;;2.56;77.83;97609.02;108058;1278;22697;-74
2022/03/30 04:54:59;;;;;;;124.80;59.30;;;;;;;2.54;77.59;97608.23;108045;1278;24267;-76
2022/03/30 04:57:26;;;;;;;123.60;62.50;;;;;;;2.52;77.59;97607.96;108070;1278;23051;-75
2022/03/30 04:59:53;;;;;;;146.70;68.10;;;;;;;2.55;77.31;97610.11;108016;1279;22561;-78
2022/03/30 05:02:21;;;;;;;154.10;72.40;;;;;;;2.62;77.15;97607.49;108032;1278;22554;-72
2022/03/30 05:04:48;;;;;;;117.50;56.60;;;;;;;2.69;77.32;97605.09;108021;1278;22545;-81
2022/03/30 05:07:15;;;;;;;97.00;50.50;;;;;;;2.76;77.81;97606.50;108061;1278;22766;-76
2022/03/30 05:09:42;;;;;;;102.70;54.10;;;;;;;2.81;77.98;97606.05;108052;1277;25440;-70
2022/03/30 05:12:09;;;;;;;102.20;51.80;;;;;;;2.88;77.75;97605.02;108062;1278;22579;-70
2022/03/30 05:14:37;;;;;;;193.80;82.20;;;;;;;2.94;77.64;97601.62;108074;1277;22671;-74
2022/03/30 05:17:04;;;;;;;168.90;75.60;;;;;;;3.00;77.32;97603.03;108052;1277;22614;-70
2022/03/30 05:19:31;;;;;;;148.40;67.60;;;;;;;3.08;77.30;97600.90;108042;1278;22555;-70
2022/03/30 05:21:58;;;;;;;126.60;60.10;;;;;;;3.14;77.56;97597.64;108040;1278;22580;-71
2022/03/30 05:24:26;;;;;;;123.10;62.80;;;;;;;3.18;77.99;97598.33;107975;1279;22710;-70
2022/03/30 05:26:53;;;;;;;135.20;63.90;;;;;;;3.21;77.77;97600.20;108053;1279;22567;-71
2022/03/30 05:29:20;;;;;;;135.90;68.70;;;;;;;3.25;77.58;97601.19;108026;1278;22594;-71
2022/03/30 05:31:48;;;;;;;150.70;75.50;;;;;;;3.29;77.53;97602.90;108025;1279;22540;-76
2022/03/30 05:34:15;;;;;;;129.40;67.60;;;;;;;3.34;77.36;97600.03;108045;1278;23526;-72
2022/03/30 05:36:42;;;;;;;152.80;72.60;;;;;;;3.48;77.36;97604.66;108006;1279;22537;-72
2022/03/30 05:39:09;;;;;;;138.20;63.70;;;;;;;3.60;77.45;97607.43;108027;1278;22561;-71
2022/03/30 05:41:36;;;;;;;134.10;59.30;;;;;;;3.73;77.70;97609.48;108177;1278;22533;-80
2022/03/30 05:44:04;;;;;;;128.30;60.20;;;;;;;3.85;77.62;97602.83;108355;1278;22652;-80
2022/03/30 05:46:32;;;;;;;143.50;64.80;;;;;;;3.93;77.59;97604.11;108319;1278;23312;-75
2022/03/30 05:48:59;;;;;;;141.80;68.30;;;;;;;4.00;77.24;97603.17;108300;1278;22540;-78
2022/03/30 05:51:26;;;;;;;141.80;69.30;;;;;;;4.07;77.18;97602.27;108290;1279;24211;-71
2022/03/30 05:53:53;;;;;;;143.60;66.10;;;;;;;4.17;76.65;97603.13;108268;1277;22571;-74
2022/03/30 05:56:59;;;;;;;147.70;69.00;;;;;;;4.27;76.56;97602.91;108292;1278;22547;-81
2022/03/30 05:59:07;;;;;;;147.00;64.10;;;;;;;4.36;76.90;97604.64;108287;1278;25298;-72
2022/03/30 06:01:34;;;;;;;311.60;126.10;;;;;;;4.43;77.23;97599.92;108253;1278;22556;-72
2022/03/30 06:04:02;;;;;;;329.40;137.60;;;;;;;4.50;76.98;97597.08;108135;1278;22556;-76
2022/03/30 06:06:29;;;;;;;266.10;133.20;;;;;;;4.60;77.17;97597.53;108047;1278;22569;-72
2022/03/30 06:08:56;;;;;;;253.50;130.90;;;;;;;4.71;76.71;97588.28;108067;1278;22567;-72
2022/03/30 06:11:23;;;;;;;196.80;114.20;;;;;;;4.83;76.74;97588.10;108046;1278;22695;-69
2022/03/30 06:13:50;;;;;;;215.30;122.20;;;;;;;4.99;76.62;97587.20;108062;1277;22539;-69
2022/03/30 06:16:17;;;;;;;195.50;96.00;;;;;;;5.16;76.38;97586.49;108077;1278;22560;-70
2022/03/30 06:18:44;;;;;;;213.10;81.40;;;;;;;5.33;76.50;97592.04;108015;1279;22697;-70
2022/03/30 06:21:12;;;;;;;188.20;78.10;;;;;;;5.44;76.97;97593.96;108029;1278;22602;-69
2022/03/30 06:23:39;;;;;;;169.60;78.70;;;;;;;5.51;76.46;97596.98;108033;1278;22550;-76
2022/03/30 06:26:07;;;;;;;161.20;78.60;;;;;;;5.61;76.44;97599.61;108024;1278;22576;-70
2022/03/30 06:28:34;;;;;;;159.10;83.90;;;;;;;5.72;75.92;97604.14;108065;1279;22541;-70
2022/03/30 06:31:04;;;;;;;156.80;84.30;;;;;;;5.81;75.87;97600.31;108046;1278;22617;-71
2022/03/30 06:33:31;;;;;;;143.30;79.90;;;;;;;5.95;75.81;97601.18;108047;1278;22573;-70
2022/03/30 06:35:58;;;;;;;182.30;101.00;;;;;;;6.11;75.66;97600.68;108054;1277;22558;-76
2022/03/30 06:38:25;;;;;;;184.90;101.50;;;;;;;6.26;75.73;97602.64;108033;1277;24208;-71
2022/03/30 06:40:53;;;;;;;177.00;92.20;;;;;;;6.35;75.59;97603.98;108051;1278;22761;-71
2022/03/30 06:43:20;;;;;;;129.30;67.20;;;;;;;6.45;75.20;97598.50;108058;1278;23277;-70
2022/03/30 06:45:47;;;;;;;116.40;64.70;;;;;;;6.58;74.97;97601.27;108034;1278;22631;-70
2022/03/30 06:48:14;;;;;;;107.00;55.00;;;;;;;6.70;74.44;97601.33;108035;1278;22612;-71
2022/03/30 06:50:41;;;;;;;106.10;56.30;;;;;;;6.81;73.80;97602.52;107987;1279;22556;-74
2022/03/30 06:53:10;;;;;;;126.10;65.30;;;;;;;6.95;73.51;97600.21;108023;1278;23082;-69
2022/03/30 06:55:38;;;;;;;108.80;58.60;;;;;;;7.07;73.30;97602.11;108018;1279;22553;-70
2022/03/30 06:58:06;;;;;;;106.70;59.70;;;;;;;7.17;73.01;97600.14;108029;1277;22528;-70
2022/03/30 07:00:33;;;;;;;94.40;50.00;;;;;;;7.24;72.68;97601.04;108004;1278;22577;-70
2022/03/30 07:03:00;;;;;;;83.90;41.90;;;;;;;7.36;72.56;97600.84;108046;1278;22674;-72
2022/03/30 07:05:28;;;;;;;77.30;42.70;;;;;;;7.52;72.96;97598.88;108071;1277;22583;-75
2022/03/30 07:10:40;;;;;;;71.40;40.50;;;;;;;7.75;71.69;97597.30;108147;1278;22531;-75
2022/03/30 07:13:07;;;;;;;66.20;40.30;;;;;;;7.90;71.36;97599.55;108307;1278;22549;-81
2022/03/30 07:15:34;;;;;;;61.10;36.00;;;;;;;8.01;70.52;97594.80;108297;1277;22556;-74
2022/03/30 07:18:02;;;;;;;55.30;31.40;;;;;;;8.11;70.01;97593.90;108307;1278;22623;-76
2022/03/30 07:20:30;;;;;;;50.20;27.60;;;;;;;8.21;69.43;97596.95;108303;1278;22544;-71
2022/03/30 07:22:58;;;;;;;44.40;28.50;;;;;;;8.27;67.97;97592.21;108296;1278;22567;-71
2022/03/30 07:25:26;;;;;;;47.70;30.70;;;;;;;8.36;67.96;97591.90;108294;1277;22538;-75
2022/03/30 07:27:58;;;;;;;42.30;26.90;;;;;;;8.45;67.65;97592.45;108253;1278;22570;-70
2022/03/30 07:30:26;;;;;;;28.10;18.90;;;;;;;8.52;66.44;97595.93;108285;1278;22629;-79
2022/03/30 07:32:55;;;;;;;27.60;17.30;;;;;;;8.54;66.12;97596.64;108293;1278;22544;-77
2022/03/30 07:35:25;;;;;;;29.40;16.30;;;;;;;8.59;64.95;97596.80;108279;1278;22549;-88
2022/03/30 07:37:52;;;;;;;27.00;15.40;;;;;;;8.66;64.41;97597.13;108326;1278;25595;-71
2022/03/30 07:40:21;;;;;;;29.00;18.10;;;;;;;8.77;64.29;97590.80;108307;1278;22569;-77
2022/03/30 07:42:49;;;;;;;27.60;18.90;;;;;;;8.83;63.06;97592.77;108292;1278;22544;-80
2022/03/30 07:45:18;;;;;;;34.10;21.50;;;;;;;8.86;62.71;97588.94;108287;1277;22691;-78
2022/03/30 07:47:45;;;;;;;37.90;22.80;;;;;;;8.91;62.35;97584.91;108374;1277;22593;-81
2022/03/30 07:50:13;;;;;;;37.50;22.50;;;;;;;8.95;61.67;97581.14;108327;1278;22551;-75
2022/03/30 07:52:42;;;;;;;39.30;23.00;;;;;;;8.98;60.29;97576.73;108367;1278;22613;-72
2022/03/30 07:55:11;;;;;;;37.90;21.90;;;;;;;9.08;60.88;97575.59;108362;1278;22646;-72
2022/03/30 07:57:42;;;;;;;39.00;21.60;;;;;;;9.13;60.70;97576.94;108310;1278;22531;-73
2022/03/30 08:00:15;;;;;;;39.50;23.50;;;;;;;9.18;60.10;97573.29;108309;1278;22490;-77
2022/03/30 08:02:43;;;;;;;;;;;;;;;9.28;60.20;97572.18;108343;1278;22678;-71
2022/03/30 08:05:12;;;;;;;37.70;20.90;;;;;;;9.35;60.37;97568.14;108333;1278;24197;-78
2022/03/30 08:07:42;;;;;;;32.10;18.50;;;;;;;9.44;59.14;97569.55;108322;1278;22537;-77
2022/03/30 08:10:11;;;;;;;30.70;19.50;;;;;;;9.47;57.45;97573.48;108296;1278;22548;-81
2022/03/30 08:12:42;;;;;;;31.80;19.10;;;;;;;9.54;57.72;97569.48;108272;1278;22557;-76
2022/03/30 08:15:12;;;;;;;32.30;19.40;;;;;;;9.63;57.24;97572.41;108330;1278;22551;-75
2022/03/30 08:17:40;;;;;;;29.10;18.40;;;;;;;9.66;57.13;97574.26;108310;1278;22568;-79
2022/03/30 08:20:08;;;;;;;29.70;18.40;;;;;;;9.71;56.97;97573.14;108298;1278;22541;-80
2022/03/30 08:22:35;;;;;;;32.90;19.80;;;;;;;9.77;56.16;97572.36;108293;1277;22806;-73
2022/03/30 08:25:07;;;;;;;30.80;19.30;;;;;;;9.83;57.10;97573.42;108273;1277;22623;-76
2022/03/30 08:27:35;;;;;;;28.50;17.50;;;;;;;9.91;55.53;97571.10;108280;1278;22707;-75
2022/03/30 08:30:05;;;;;;;28.70;16.80;;;;;;;9.98;54.90;97570.15;108290;1277;22554;-77
2022/03/30 08:32:34;;;;;;;22.80;13.10;;;;;;;10.07;54.52;97569.07;108303;1277;22623;-72
2022/03/30 08:35:05;;;;;;;19.60;12.70;;;;;;;10.07;53.93;97565.28;108326;1278;22647;-79
2022/03/30 08:37:32;;;;;;;25.60;14.80;;;;;;;10.06;54.11;97562.90;108341;1278;22607;-78
2022/03/30 08:39:59;;;;;;;26.80;16.60;;;;;;;10.13;54.73;97557.79;108302;1278;22559;-80
2022/03/30 08:42:26;;;;;;;24.70;15.50;;;;;;;10.14;54.00;97556.15;108310;1278;22538;-74
2022/03/30 08:44:53;;;;;;;27.50;16.60;;;;;;;10.13;53.77;97557.76;108311;1278;22532;-73
2022/03/30 08:47:20;;;;;;;28.10;18.00;;;;;;;10.11;53.74;97555.54;108285;1277;24348;-70
2022/03/30 08:49:50;;;;;;;31.20;18.90;;;;;;;10.11;53.61;97555.52;108148;1278;22568;-74
2022/03/30 08:52:18;;;;;;;28.80;17.60;;;;;;;10.12;53.38;97553.34;108315;1277;22541;-77
2022/03/30 08:54:49;;;;;;;29.40;17.70;;;;;;;10.19;53.37;97552.85;108341;1278;22545;-72
2022/03/30 08:57:18;;;;;;;26.30;16.40;;;;;;;10.21;52.85;97554.29;108347;1277;24429;-75
2022/03/30 08:59:59;;;;;;;25.30;15.20;;;;;;;10.24;53.20;97552.66;108312;1277;22549;-72
2022/03/30 09:02:37;;;;;;;26.20;16.70;;;;;;;10.25;53.14;97551.14;108231;1277;22797;-76
2022/03/30 09:05:15;;;;;;;33.20;18.00;;;;;;;10.27;53.02;97553.78;108304;1277;22550;-73
2022/03/30 09:07:44;;;;;;;26.90;15.40;;;;;;;10.32;51.67;97547.79;108335;1277;25317;-72
2022/03/30 09:10:31;;;;;;;29.40;17.60;;;;;;;10.41;51.72;97550.20;108307;1277;22616;-79
2022/03/30 09:12:58;;;;;;;85.80;58.60;;;;;;;10.53;51.68;97546.73;108175;1277;22574;-74
2022/03/30 09:15:25;;;;;;;29.50;19.30;;;;;;;10.60;51.52;97550.34;108261;1277;22585;-71
2022/03/30 09:17:58;;;;;;;30.90;18.60;;;;;;;10.65;51.51;97546.98;108329;1277;25323;-76
2022/03/30 09:20:25;;;;;;;28.20;16.90;;;;;;;10.70;51.59;97543.58;108348;1277;22551;-72
2022/03/30 09:22:55;;;;;;;28.30;17.10;;;;;;;10.77;50.32;97540.42;108299;1277;22534;-71
2022/03/30 09:25:27;;;;;;;27.50;17.10;;;;;;;10.87;50.98;97542.15;108306;1277;22608;-78
2022/03/30 09:27:57;;;;;;;26.60;16.80;;;;;;;11.01;50.86;97540.38;108316;1277;23003;-73
2022/03/30 09:30:26;;;;;;;30.90;18.70;;;;;;;11.15;50.40;97540.85;108323;1277;22661;-76
2022/03/30 09:32:55;;;;;;;32.30;17.60;;;;;;;11.28;50.30;97537.48;108306;1277;22592;-73
2022/03/30 09:35:28;;;;;;;31.40;19.00;;;;;;;11.40;49.40;97537.34;108357;1277;22653;-78
2022/03/30 09:38:00;;;;;;;31.60;19.70;;;;;;;11.53;50.33;97536.73;108283;1278;24224;-72
2022/03/30 09:40:55;;;;;;;31.60;20.30;;;;;;;11.62;50.27;97533.46;108164;1278;22623;-71
2022/03/30 09:43:30;;;;;;;31.80;21.30;;;;;;;11.79;49.44;97535.21;108301;1277;22550;-78
2022/03/30 09:46:11;;;;;;;31.50;20.30;;;;;;;11.87;49.25;97532.27;108308;1277;22538;-72
2022/03/30 09:48:52;;;;;;;32.40;18.80;;;;;;;11.92;48.07;97528.48;108358;1277;22557;-75
2022/03/30 09:51:22;;;;;;;32.30;20.20;;;;;;;11.95;48.25;97526.48;108346;1278;22563;-78
2022/03/30 09:53:49;;;;;;;32.40;22.20;;;;;;;12.03;47.43;97523.33;108331;1277;22537;-73
2022/03/30 09:56:19;;;;;;;36.60;22.20;;;;;;;12.19;47.63;97521.04;108336;1277;25283;-73
2022/03/30 09:58:47;;;;;;;33.10;21.30;;;;;;;12.39;48.34;97517.80;108355;1278;22557;-72
2022/03/30 10:01:20;;;;;;;28.70;18.30;;;;;;;12.54;45.93;97513.81;108344;1277;22569;-77
2022/03/30 10:03:50;;;;;;;;;;;;;;;12.71;46.79;97511.05;108362;1277;22554;-73
2022/03/30 10:06:22;;;;;;;26.60;18.90;;;;;;;12.81;47.96;97506.98;108338;1277;24295;-78
2022/03/30 10:08:51;;;;;;;29.70;19.20;;;;;;;12.99;47.02;97501.81;108323;1277;25039;-72
2022/03/30 10:11:20;;;;;;;28.00;19.20;;;;;;;13.04;45.82;97500.31;108368;1277;22748;-73
2022/03/30 10:13:50;;;;;;;32.80;21.00;;;;;;;13.06;44.04;97496.96;108324;1277;22547;-79
2022/03/30 10:16:18;;;;;;;29.60;19.70;;;;;;;13.13;44.76;97491.26;108207;1278;22550;-78
2022/03/30 10:18:46;;;;;;;34.20;21.20;;;;;;;13.35;44.71;97482.18;108231;1277;22726;-72
2022/03/30 10:21:15;;;;;;;32.40;22.30;;;;;;;13.56;44.61;97479.48;108237;1277;22630;-75
2022/03/30 10:24:01;;;;;;;66.20;21.90;;;;;;;13.82;45.53;97474.20;108321;1277;22550;-76
2022/03/30 10:26:56;;;;;;;29.90;20.40;;;;;;;13.97;44.00;97464.45;108304;1277;22729;-74
2022/03/30 10:29:26;;;;;;;33.60;20.90;;;;;;;13.78;44.75;97464.42;108267;1277;22553;-70
2022/03/30 10:32:19;;;;;;;28.80;20.50;;;;;;;13.89;44.21;97463.88;108285;1278;22556;-76
2022/03/30 10:34:57;;;;;;;35.00;21.20;;;;;;;13.96;44.05;97458.67;108258;1279;22573;-72
2022/03/30 10:37:33;;;;;;;38.30;20.40;;;;;;;14.10;44.11;97458.37;108243;1281;26522;-72
2022/03/30 10:40:02;;;;;;;29.30;20.80;;;;;;;14.10;43.45;97454.14;108233;1281;24226;-72
2022/03/30 10:42:50;;;;;;;32.60;20.30;;;;;;;14.17;43.88;97451.48;108293;1278;22672;-70
2022/03/30 10:45:41;;;;;;;36.10;19.80;;;;;;;14.21;43.48;97442.02;108292;1277;22656;-71
2022/03/30 10:48:18;;;;;;;29.50;20.20;;;;;;;14.23;43.28;97445.62;108315;1277;22575;-75
2022/03/30 10:50:49;;;;;;;31.70;19.80;;;;;;;14.22;42.91;97442.11;108194;1277;22544;-75
2022/03/30 10:53:35;;;;;;;24.80;18.40;;;;;;;14.17;42.84;97443.77;108240;1277;23221;-73
2022/03/30 10:56:08;;;;;;;28.10;19.60;;;;;;;14.15;42.36;97445.24;108329;1277;22655;-71
2022/03/30 10:58:37;;;;;;;26.90;18.30;;;;;;;14.17;42.07;97441.40;108295;1277;24234;-75
2022/03/30 11:01:15;;;;;;;27.80;18.80;;;;;;;14.19;41.99;97442.19;108315;1277;22680;-73
2022/03/30 11:04:05;;;;;;;28.20;18.30;;;;;;;14.34;42.29;97443.02;108323;1277;26521;-75
2022/03/30 11:06:43;;;;;;;25.30;18.70;;;;;;;14.34;41.79;97440.41;108247;1277;22607;-84
2022/03/30 11:09:19;;;;;;;30.60;19.00;;;;;;;14.39;42.48;97442.36;108332;1277;22741;-78
2022/03/30 11:11:59;;;;;;;35.30;24.60;;;;;;;14.35;42.01;97439.00;108397;1277;25388;-76
2022/03/30 11:14:37;;;;;;;44.10;19.50;;;;;;;14.26;41.72;97434.71;108365;1277;22703;-75
2022/03/30 11:17:09;;;;;;;26.90;17.50;;;;;;;14.14;42.03;97432.05;108343;1277;22633;-73
2022/03/30 11:19:54;;;;;;;30.20;19.80;;;;;;;13.84;40.92;97428.62;108348;1277;22637;-80
2022/03/30 11:22:21;;;;;;;30.60;20.50;;;;;;;13.69;41.98;97426.30;108346;1275;22741;-73
2022/03/30 11:25:10;;;;;;;28.30;19.30;;;;;;;13.45;41.58;97424.56;108343;1277;22694;-84
2022/03/30 11:27:38;;;;;;;26.70;18.40;;;;;;;13.26;41.96;97423.84;108310;1277;22752;-81
2022/03/30 11:30:12;;;;;;;28.20;19.20;;;;;;;13.15;41.91;97419.07;108319;1277;22537;-72